Time;durP1;ratioP1;P1;durP2;ratioP2;P2;SDS_P1;SDS_P2;PMS_P1;PMS_P2;Temp;Humidity;BMP_temperature;BMP_pressure;BME280_temperature;BME280_humidity;BME280_pressure;Samples;Min_cycle;Max_cycle;Signal;HPM_P1;HPM_P2
2021/08/11 00:00:38;;;;;;;7.65;5.05;;;;;;;20.96;63.51;93313.31;5131819;27;20093;-85
2021/08/11 00:03:05;;;;;;;9.32;6.00;;;;;;;20.95;63.51;93307.34;5133584;27;20552;-85
2021/08/11 00:05:32;;;;;;;9.10;5.68;;;;;;;20.84;63.36;93298.00;5133036;27;20047;-85
2021/08/11 00:08:00;;;;;;;8.68;4.85;;;;;;;20.79;63.21;93285.72;5131153;27;20096;-85
2021/08/11 00:10:27;;;;;;;6.65;5.03;;;;;;;21.03;62.64;93303.38;5130810;27;20503;-85
2021/08/11 00:12:54;;;;;;;9.48;5.35;;;;;;;21.06;62.36;93305.41;5131182;27;20547;-85
2021/08/11 00:15:20;;;;;;;8.80;5.07;;;;;;;20.94;63.33;93311.00;5131091;27;20047;-85
2021/08/11 00:17:47;;;;;;;6.50;5.10;;;;;;;20.85;63.78;93309.19;5131136;27;20043;-85
2021/08/11 00:20:14;;;;;;;8.00;5.18;;;;;;;20.86;63.20;93300.34;5130871;27;20062;-86
2021/08/11 00:22:41;;;;;;;8.55;5.13;;;;;;;20.87;63.71;93300.06;5130779;27;20560;-85
2021/08/11 00:25:10;;;;;;;7.78;4.72;;;;;;;20.86;64.00;93303.75;5130864;27;20051;-85
2021/08/11 00:27:37;;;;;;;6.90;5.45;;;;;;;20.73;64.86;93301.72;5130727;27;20096;-84
2021/08/11 00:30:04;;;;;;;11.40;5.85;;;;;;;20.63;63.91;93279.84;5131370;27;20047;-85
2021/08/11 00:32:31;;;;;;;12.05;5.72;;;;;;;20.77;64.32;93293.06;5130755;27;20050;-85
2021/08/11 00:34:58;;;;;;;9.68;5.10;;;;;;;20.69;65.09;93304.84;5130664;27;20051;-84
2021/08/11 00:37:25;;;;;;;7.60;5.97;;;;;;;20.63;64.62;93299.94;5130511;27;20503;-84
2021/08/11 00:39:51;;;;;;;8.68;5.82;;;;;;;20.65;64.52;93297.84;5130889;27;20046;-85
2021/08/11 00:42:19;;;;;;;8.43;6.00;;;;;;;20.61;65.82;93305.44;5130571;27;20470;-84
2021/08/11 00:44:46;;;;;;;7.78;5.28;;;;;;;20.55;65.47;93301.31;5130498;27;20465;-83
2021/08/11 00:47:13;;;;;;;9.52;5.75;;;;;;;20.48;65.49;93306.00;5130731;27;20487;-85
2021/08/11 00:49:42;;;;;;;8.95;4.82;;;;;;;20.46;65.59;93306.28;5130423;27;20050;-84
2021/08/11 00:52:08;;;;;;;9.10;5.93;;;;;;;20.48;65.42;93309.41;5130663;27;20043;-84
2021/08/11 00:54:36;;;;;;;9.48;5.65;;;;;;;20.37;65.44;93305.31;5130439;27;20047;-84
2021/08/11 00:57:05;;;;;;;8.93;5.53;;;;;;;20.47;65.11;93307.88;5130212;27;20445;-84
2021/08/11 00:59:35;;;;;;;9.88;5.18;;;;;;;20.38;66.11;93310.25;5130503;27;20047;-84
2021/08/11 01:02:03;;;;;;;9.65;5.10;;;;;;;20.26;65.89;93296.72;5130172;27;20047;-85
2021/08/11 01:04:31;;;;;;;8.20;5.55;;;;;;;20.37;65.74;93306.06;5130175;27;20663;-85
2021/08/11 01:06:57;;;;;;;9.73;5.70;;;;;;;20.29;66.37;93304.78;5130266;27;20051;-85
2021/08/11 01:09:24;;;;;;;14.48;5.55;;;;;;;20.21;66.59;93294.94;5126173;27;20043;-85
2021/08/11 01:11:53;;;;;;;8.55;5.68;;;;;;;20.22;66.48;93286.06;5128495;27;20247;-85
2021/08/11 01:14:20;;;;;;;7.82;5.78;;;;;;;20.13;67.12;93285.84;5129880;27;20121;-85
2021/08/11 01:16:48;;;;;;;9.82;5.82;;;;;;;20.04;67.84;93295.25;5130110;27;20108;-85
2021/08/11 01:19:15;;;;;;;7.63;5.55;;;;;;;19.97;67.65;93276.50;5130077;27;20105;-85
2021/08/11 01:21:50;;;;;;;8.38;6.15;;;;;;;20.03;67.38;93291.88;5129459;28;20078;-85
2021/08/11 01:24:23;;;;;;;7.53;5.60;;;;;;;20.08;67.57;93292.91;5128571;27;20415;-85
2021/08/11 01:27:06;;;;;;;9.43;6.80;;;;;;;20.02;67.72;93290.31;5129170;28;20377;-85
2021/08/11 01:29:48;;;;;;;8.07;5.63;;;;;;;20.05;67.35;93277.78;5126668;28;20130;-85
2021/08/11 01:32:26;;;;;;;11.10;6.30;;;;;;;20.09;67.55;93284.03;5124848;28;20054;-83
2021/08/11 01:34:56;;;;;;;11.07;5.50;;;;;;;20.04;67.82;93279.59;5130095;28;20051;-83
2021/08/11 01:37:29;;;;;;;7.65;5.72;;;;;;;19.97;67.97;93281.72;5129622;28;20062;-83
2021/08/11 01:40:00;;;;;;;8.57;6.13;;;;;;;19.92;68.16;93279.09;5129207;28;20047;-83
2021/08/11 01:42:30;;;;;;;9.68;5.75;;;;;;;19.92;67.82;93264.25;5129068;27;20491;-83
2021/08/11 01:45:02;;;;;;;12.32;6.13;;;;;;;19.93;68.35;93267.63;5129078;27;20043;-83
2021/08/11 01:47:33;;;;;;;7.88;5.47;;;;;;;19.82;68.80;93269.50;5126440;28;20483;-83
2021/08/11 01:50:02;;;;;;;7.50;5.78;;;;;;;19.73;69.12;93258.84;5128244;28;20089;-83
2021/08/11 01:52:29;;;;;;;9.20;6.55;;;;;;;19.85;68.26;93259.31;5118977;28;20416;-83
2021/08/11 01:54:58;;;;;;;8.65;6.03;;;;;;;19.80;68.55;93256.72;5128869;27;20050;-84
2021/08/11 01:57:25;;;;;;;7.90;5.28;;;;;;;19.79;68.75;93262.19;5128122;27;20112;-84
2021/08/11 01:59:53;;;;;;;8.82;6.00;;;;;;;19.72;68.29;93258.06;5129216;28;20467;-82
2021/08/11 02:02:22;;;;;;;9.85;5.47;;;;;;;19.79;68.32;93263.00;5126572;28;20487;-82
2021/08/11 02:04:49;;;;;;;7.35;5.53;;;;;;;19.81;68.18;93262.72;5128680;28;20043;-82
2021/08/11 02:07:18;;;;;;;8.93;5.45;;;;;;;19.83;67.75;93269.25;5129461;28;20047;-82
2021/08/11 02:09:45;;;;;;;10.77;5.60;;;;;;;19.76;68.62;93279.16;5128984;28;20043;-82
2021/08/11 02:12:12;;;;;;;7.63;5.72;;;;;;;19.67;69.67;93273.69;5129363;28;20043;-82
2021/08/11 02:14:40;;;;;;;8.35;5.78;;;;;;;19.54;69.64;93274.25;5129227;27;20088;-82
2021/08/11 02:17:07;;;;;;;8.50;6.38;;;;;;;19.44;69.54;93256.84;5128798;28;20035;-82
2021/08/11 02:19:34;;;;;;;8.32;6.00;;;;;;;19.52;69.91;93274.53;5128929;28;20551;-81
2021/08/11 02:22:01;;;;;;;7.95;5.55;;;;;;;19.49;70.07;93288.09;5128785;28;20081;-81
2021/08/11 02:24:29;;;;;;;8.95;5.80;;;;;;;19.46;70.36;93281.59;5129158;28;20036;-81
2021/08/11 02:27:01;;;;;;;7.93;5.93;;;;;;;19.43;70.56;93279.50;5128718;28;20066;-81
2021/08/11 02:29:39;;;;;;;7.45;5.45;;;;;;;19.44;70.47;93278.44;5129004;27;20047;-81
2021/08/11 02:32:13;;;;;;;7.03;5.40;;;;;;;19.43;70.33;93282.09;5128858;28;20438;-81
2021/08/11 02:34:45;;;;;;;8.48;6.18;;;;;;;19.48;70.49;93283.91;5125583;27;20047;-81
2021/08/11 02:37:15;;;;;;;7.05;5.60;;;;;;;19.46;70.29;93278.97;5128348;27;20035;-83
2021/08/11 02:39:50;;;;;;;8.48;5.63;;;;;;;19.46;70.94;93280.78;5132778;27;20495;-83
2021/08/11 02:42:28;;;;;;;10.63;5.75;;;;;;;19.45;70.77;93276.63;5131111;27;20048;-83
2021/08/11 02:44:57;;;;;;;9.38;6.07;;;;;;;19.35;72.03;93282.63;5130909;27;20093;-83
2021/08/11 02:47:25;;;;;;;9.57;6.22;;;;;;;19.25;72.00;93278.19;5133114;27;20078;-83
2021/08/11 02:49:53;;;;;;;7.75;6.05;;;;;;;19.28;71.60;93275.09;5133037;27;20104;-83
2021/08/11 02:52:21;;;;;;;8.43;6.10;;;;;;;19.27;71.49;93270.94;5132886;27;20047;-84
2021/08/11 02:54:50;;;;;;;9.55;5.65;;;;;;;19.34;70.72;93270.63;5132943;27;20047;-84
2021/08/11 02:57:19;;;;;;;8.55;5.53;;;;;;;19.29;71.12;93261.00;5133623;27;20051;-84
2021/08/11 02:59:46;;;;;;;9.43;6.22;;;;;;;19.26;70.83;93261.56;5134789;27;20047;-84
2021/08/11 03:02:13;;;;;;;7.75;5.72;;;;;;;19.37;70.62;93270.13;5137513;27;20046;-84
2021/08/11 03:04:40;;;;;;;9.07;7.30;;;;;;;19.33;70.88;93258.66;5132572;27;20051;-85
2021/08/11 03:07:08;;;;;;;10.88;5.78;;;;;;;19.31;70.70;93258.16;5132692;27;20096;-84
2021/08/11 03:09:35;;;;;;;10.30;7.05;;;;;;;19.39;70.77;93269.88;5132419;27;20059;-84
2021/08/11 03:12:07;;;;;;;9.50;6.45;;;;;;;19.14;70.82;93230.56;5132284;27;20484;-84
2021/08/11 03:14:35;;;;;;;13.63;6.65;;;;;;;19.15;70.98;93233.94;5132518;27;20093;-84
2021/08/11 03:17:02;;;;;;;11.38;6.32;;;;;;;19.32;70.92;93264.91;5132567;27;20055;-84
2021/08/11 03:19:29;;;;;;;8.90;6.30;;;;;;;19.32;70.86;93265.72;5132067;27;20082;-84
2021/08/11 03:21:55;;;;;;;11.32;5.78;;;;;;;19.30;71.36;93267.78;5132127;27;20047;-85
2021/08/11 03:24:24;;;;;;;10.13;6.50;;;;;;;19.25;70.88;93267.03;5132401;27;20449;-85
2021/08/11 03:26:51;;;;;;;13.63;6.13;;;;;;;19.27;71.00;93272.72;5131949;27;20047;-86
2021/08/11 03:29:19;;;;;;;9.73;5.90;;;;;;;18.85;71.46;93214.69;5132130;27;20088;-86
2021/08/11 03:31:46;;;;;;;12.52;6.50;;;;;;;19.17;71.52;93265.72;5131950;27;20043;-85
2021/08/11 03:34:12;;;;;;;12.43;6.85;;;;;;;19.14;72.09;93271.44;5132141;27;20104;-85
2021/08/11 03:36:39;;;;;;;12.60;6.50;;;;;;;19.14;72.16;93271.44;5132236;27;20107;-86
2021/08/11 03:39:06;;;;;;;12.95;6.30;;;;;;;18.67;72.24;93214.16;5131969;27;20388;-86
2021/08/11 03:41:33;;;;;;;10.23;5.80;;;;;;;19.14;72.37;93285.25;5132085;27;20092;-85
2021/08/11 03:43:59;;;;;;;11.25;6.38;;;;;;;19.07;72.82;93288.09;5132261;27;20039;-85
2021/08/11 03:46:30;;;;;;;9.52;6.10;;;;;;;18.92;73.96;93286.25;5131224;27;20087;-85
2021/08/11 03:48:57;;;;;;;9.07;6.45;;;;;;;18.92;74.13;93286.25;5131692;27;20055;-85
2021/08/11 03:51:24;;;;;;;9.02;6.63;;;;;;;18.79;74.50;93271.94;5131711;27;20092;-84
2021/08/11 03:53:50;;;;;;;11.45;6.60;;;;;;;18.82;75.75;93292.25;5131917;27;20143;-84
2021/08/11 03:56:17;;;;;;;13.45;6.47;;;;;;;18.73;75.22;93283.38;5131253;27;20050;-84
2021/08/11 03:58:44;;;;;;;11.60;6.70;;;;;;;18.85;75.19;93303.97;5131472;27;20051;-84
2021/08/11 04:01:11;;;;;;;17.48;6.72;;;;;;;18.92;74.41;93307.06;5131603;27;20087;-84
2021/08/11 04:03:39;;;;;;;13.20;7.18;;;;;;;18.92;74.85;93298.47;5131455;27;20047;-84
2021/08/11 04:06:06;;;;;;;8.68;6.22;;;;;;;18.89;75.18;93288.59;5131358;27;20050;-84
2021/08/11 04:08:32;;;;;;;11.80;6.93;;;;;;;19.00;75.65;93299.78;5131344;27;20039;-83
2021/08/11 04:10:59;;;;;;;14.05;6.90;;;;;;;19.10;74.81;93299.81;5131569;27;20047;-83
2021/08/11 04:13:26;;;;;;;15.38;8.02;;;;;;;19.22;73.95;93302.19;5131171;27;20043;-84
2021/08/11 04:15:52;;;;;;;20.48;7.93;;;;;;;19.31;73.00;93299.81;5131334;27;20093;-85
2021/08/11 04:18:19;;;;;;;20.85;7.57;;;;;;;19.41;72.85;93306.84;5131514;27;20108;-83
2021/08/11 04:20:47;;;;;;;13.75;7.32;;;;;;;19.42;72.65;93306.59;5130999;27;20544;-84
2021/08/11 04:23:14;;;;;;;19.60;7.20;;;;;;;19.43;72.63;93296.94;5129564;27;20286;-85
2021/08/11 04:25:41;;;;;;;13.63;6.80;;;;;;;19.54;72.36;93302.91;5130340;27;20047;-84
2021/08/11 04:28:09;;;;;;;11.32;7.43;;;;;;;19.55;72.32;93300.06;5130913;27;20449;-84
2021/08/11 04:30:37;;;;;;;18.63;7.13;;;;;;;19.52;71.78;93290.16;5130953;27;20047;-83
2021/08/11 04:33:04;;;;;;;11.82;7.20;;;;;;;19.69;71.78;93310.72;5131020;27;20047;-84
2021/08/11 04:35:30;;;;;;;16.70;7.78;;;;;;;19.65;71.55;93291.44;5130989;27;20320;-84
2021/08/11 04:37:59;;;;;;;16.85;7.55;;;;;;;19.82;71.58;93308.59;5130346;27;20092;-86
2021/08/11 04:40:26;;;;;;;22.38;8.13;;;;;;;19.90;70.86;93297.59;5130709;27;20088;-85
2021/08/11 04:42:52;;;;;;;13.02;8.88;;;;;;;20.03;70.78;93302.31;5130880;27;20059;-85
2021/08/11 04:45:19;;;;;;;12.63;6.78;;;;;;;20.11;70.03;93287.94;5130427;27;20522;-84
2021/08/11 04:47:48;;;;;;;14.10;7.55;;;;;;;20.37;69.63;93300.84;5130788;27;20051;-84
2021/08/11 04:50:15;;;;;;;13.50;7.25;;;;;;;20.49;69.13;93297.94;5130368;27;20125;-84
2021/08/11 04:52:42;;;;;;;18.00;7.97;;;;;;;20.64;68.24;93302.28;5130705;27;20043;-84
2021/08/11 04:55:12;;;;;;;10.43;7.13;;;;;;;20.77;67.74;93300.09;5130657;27;20039;-84
2021/08/11 04:57:39;;;;;;;14.15;6.78;;;;;;;20.83;68.07;93288.59;5129718;27;20138;-84
2021/08/11 05:00:07;;;;;;;15.52;7.93;;;;;;;20.96;67.53;93293.22;5130364;27;20046;-84
2021/08/11 05:02:34;;;;;;;13.73;7.50;;;;;;;21.09;68.00;93293.66;5130683;27;20367;-84
2021/08/11 05:05:01;;;;;;;14.48;7.53;;;;;;;21.07;67.29;93285.31;5130506;27;20078;-84
2021/08/11 05:07:28;;;;;;;19.73;7.82;;;;;;;21.28;65.97;93293.00;5130453;27;20043;-84
2021/08/11 05:09:55;;;;;;;14.73;7.13;;;;;;;21.39;66.41;93298.91;5130261;27;20524;-84
2021/08/11 05:12:25;;;;;;;9.10;6.75;;;;;;;21.43;65.85;93300.69;5130125;27;20051;-84
2021/08/11 05:14:53;;;;;;;10.52;6.30;;;;;;;21.46;66.21;93301.97;5130973;27;20043;-83
2021/08/11 05:17:22;;;;;;;12.52;6.30;;;;;;;21.51;67.21;93304.53;5130552;27;20507;-83
2021/08/11 05:19:49;;;;;;;12.55;7.20;;;;;;;21.55;65.39;93302.13;5130843;27;20051;-83
2021/08/11 05:22:16;;;;;;;11.93;7.53;;;;;;;21.37;69.29;93301.78;5130765;27;20766;-83
2021/08/11 05:24:43;;;;;;;12.48;7.00;;;;;;;20.99;70.68;93315.41;5130995;28;20055;-83
2021/08/11 05:27:10;;;;;;;13.02;7.45;;;;;;;20.65;73.02;93301.22;5130544;27;20047;-85
2021/08/11 05:29:40;;;;;;;12.77;7.50;;;;;;;20.76;71.25;93295.94;5130378;28;20051;-88
2021/08/11 05:32:07;;;;;;;12.50;6.63;;;;;;;20.75;71.83;93316.06;5130960;28;20048;-84
2021/08/11 05:34:33;;;;;;;13.75;7.50;;;;;;;20.70;72.94;93298.56;5129872;28;20088;-87
2021/08/11 05:37:00;;;;;;;11.88;7.30;;;;;;;21.05;72.33;93309.09;5129842;27;20605;-87
2021/08/11 05:39:27;;;;;;;15.43;6.65;;;;;;;21.14;70.35;93288.38;5129956;28;20053;-86
2021/08/11 05:41:54;;;;;;;8.38;6.78;;;;;;;21.40;67.94;93303.06;5130664;28;20047;-87
2021/08/11 05:44:21;;;;;;;10.27;6.70;;;;;;;21.68;66.43;93305.94;5127761;27;20115;-85
2021/08/11 05:46:49;;;;;;;12.57;6.78;;;;;;;21.97;65.98;93311.16;5128713;28;20051;-85
2021/08/11 05:49:16;;;;;;;8.90;6.60;;;;;;;22.20;65.39;93321.91;5129513;28;20051;-85
2021/08/11 05:51:42;;;;;;;13.43;7.20;;;;;;;22.24;65.39;93330.75;5130587;28;20055;-85
2021/08/11 05:54:09;;;;;;;14.98;7.68;;;;;;;22.34;64.15;93321.19;5130670;27;20060;-84
2021/08/11 05:56:36;;;;;;;17.25;7.78;;;;;;;22.62;61.72;93318.78;5130652;27;20359;-85
2021/08/11 05:59:03;;;;;;;13.77;7.57;;;;;;;22.93;61.45;93324.41;5131419;28;20051;-85
2021/08/11 06:01:30;;;;;;;11.20;7.60;;;;;;;23.16;61.82;93316.72;5134768;27;20103;-83
2021/08/11 06:03:58;;;;;;;19.70;8.80;;;;;;;23.32;61.19;93321.72;5130779;28;20051;-85
2021/08/11 06:06:25;;;;;;;15.82;8.57;;;;;;;23.46;59.31;93317.31;5130341;28;20043;-84
2021/08/11 06:08:52;;;;;;;20.50;9.07;;;;;;;23.57;59.82;93322.38;5130372;27;20043;-85
2021/08/11 06:11:20;;;;;;;20.33;9.45;;;;;;;23.72;59.36;93306.41;5134176;27;20483;-85
2021/08/11 06:13:46;;;;;;;19.08;9.02;;;;;;;24.08;58.18;93312.84;5133874;27;20043;-85
2021/08/11 06:16:13;;;;;;;21.55;8.98;;;;;;;24.46;57.47;93313.69;5133879;27;20111;-85
2021/08/11 06:18:40;;;;;;;21.55;10.65;;;;;;;24.69;56.29;93312.69;5133458;27;20051;-86
2021/08/11 06:21:08;;;;;;;17.08;10.05;;;;;;;24.81;54.96;93283.28;5133209;27;20051;-85
2021/08/11 06:23:35;;;;;;;24.23;11.30;;;;;;;25.30;53.10;93308.97;5133310;27;20099;-86
2021/08/11 06:26:02;;;;;;;25.40;11.82;;;;;;;25.65;51.82;93302.38;5133192;27;20086;-85
2021/08/11 06:28:29;;;;;;;24.98;12.10;;;;;;;25.91;50.98;93296.44;5133226;27;20092;-85
2021/08/11 06:30:56;;;;;;;20.10;10.68;;;;;;;26.28;50.29;93297.81;5133000;27;20099;-85
2021/08/11 06:33:22;;;;;;;17.55;9.82;;;;;;;26.56;49.52;93283.59;5133342;27;20112;-86
2021/08/11 06:35:49;;;;;;;26.02;9.75;;;;;;;26.94;48.05;93282.25;5132776;27;20047;-86
2021/08/11 06:38:17;;;;;;;32.10;12.23;;;;;;;27.37;47.61;93293.03;5133065;27;20047;-86
2021/08/11 06:40:44;;;;;;;21.73;11.85;;;;;;;27.62;46.47;93270.34;5132852;27;20560;-86
2021/08/11 06:43:11;;;;;;;26.48;12.52;;;;;;;27.98;45.76;93269.13;5132890;27;20534;-86
2021/08/11 06:45:38;;;;;;;27.38;13.57;;;;;;;28.45;44.75;93288.59;5132842;27;20043;-86
2021/08/11 06:48:05;;;;;;;26.67;13.38;;;;;;;28.83;43.47;93283.53;5132658;27;20588;-87
2021/08/11 06:50:32;;;;;;;31.63;14.80;;;;;;;29.10;42.97;93284.88;5132970;27;20051;-86
2021/08/11 06:52:58;;;;;;;33.40;16.45;;;;;;;29.33;42.72;93277.34;5132739;27;20047;-87
2021/08/11 06:55:27;;;;;;;35.55;20.17;;;;;;;29.47;41.64;93277.03;5132841;27;20044;-86
2021/08/11 06:57:53;;;;;;;45.13;25.40;;;;;;;29.60;41.35;93287.69;5132756;27;20047;-86
2021/08/11 07:00:20;;;;;;;61.40;26.98;;;;;;;29.86;40.67;93282.06;5132936;27;20104;-87
2021/08/11 07:02:47;;;;;;;60.53;28.42;;;;;;;29.99;40.54;93287.41;5132734;27;20385;-87
2021/08/11 07:05:14;;;;;;;36.20;19.08;;;;;;;30.23;38.65;93288.50;5132547;27;20073;-87
2021/08/11 07:07:41;;;;;;;39.00;18.83;;;;;;;30.32;39.40;93294.47;5132514;27;20461;-88
2021/08/11 07:10:10;;;;;;;31.00;16.02;;;;;;;30.41;39.19;93283.75;5132346;27;20062;-88
2021/08/11 07:12:39;;;;;;;27.00;13.18;;;;;;;30.28;38.80;93267.09;5132412;27;20050;-88
2021/08/11 07:15:07;;;;;;;25.60;10.70;;;;;;;30.35;37.25;93258.56;5132589;27;20051;-88
2021/08/11 07:17:34;;;;;;;25.13;11.90;;;;;;;30.74;37.76;93282.81;5131925;27;20574;-87
2021/08/11 07:20:01;;;;;;;15.80;7.63;;;;;;;30.64;36.94;93259.41;5132018;27;20047;-87
2021/08/11 07:22:29;;;;;;;17.05;6.97;;;;;;;30.97;36.64;93278.88;5131205;27;20093;-88
2021/08/11 07:24:56;;;;;;;22.05;8.02;;;;;;;31.26;36.18;93253.88;5131804;27;20076;-89
2021/08/11 07:27:22;;;;;;;15.77;6.32;;;;;;;31.10;34.73;93274.28;5132228;27;20043;-89
2021/08/11 07:29:50;;;;;;;13.55;7.07;;;;;;;30.47;36.21;93266.50;5131973;27;20051;-88
2021/08/11 07:32:17;;;;;;;14.00;6.38;;;;;;;30.75;35.76;93263.16;5131690;27;20054;-87
2021/08/11 07:34:44;;;;;;;10.27;6.40;;;;;;;30.93;36.04;93268.16;5132229;27;20047;-87
2021/08/11 07:37:11;;;;;;;11.93;7.00;;;;;;;31.13;35.96;93271.72;5132002;27;20098;-87
2021/08/11 07:39:37;;;;;;;14.88;7.38;;;;;;;30.38;35.72;93266.63;5131789;27;20043;-88
2021/08/11 07:42:04;;;;;;;11.05;6.47;;;;;;;30.40;35.54;93227.31;5132035;27;20047;-89
2021/08/11 07:44:31;;;;;;;14.05;8.05;;;;;;;30.50;36.57;93279.09;5131955;27;20043;-86
2021/08/11 07:46:59;;;;;;;11.15;6.13;;;;;;;30.50;36.05;93267.72;5131326;27;20572;-87
2021/08/11 07:49:26;;;;;;;8.77;5.47;;;;;;;30.67;34.83;93258.72;5131795;27;20478;-89
2021/08/11 07:51:52;;;;;;;9.23;5.28;;;;;;;30.49;35.49;93243.09;5131741;27;20462;-89
2021/08/11 07:54:19;;;;;;;9.18;5.57;;;;;;;30.15;35.65;93200.09;5131589;27;20044;-88
2021/08/11 07:56:46;;;;;;;11.02;5.75;;;;;;;30.78;35.59;93237.84;5131410;27;20491;-89
2021/08/11 07:59:12;;;;;;;15.18;6.25;;;;;;;30.06;35.52;93263.78;5131882;27;20047;-89
2021/08/11 08:01:39;;;;;;;15.38;5.80;;;;;;;30.10;35.75;93218.88;5131385;27;20483;-88
2021/08/11 08:04:07;;;;;;;13.02;5.65;;;;;;;30.61;34.91;93266.16;5131442;27;20388;-89
2021/08/11 08:06:35;;;;;;;10.02;5.35;;;;;;;30.73;35.28;93273.31;5131757;27;20051;-86
2021/08/11 08:09:02;;;;;;;14.82;7.55;;;;;;;30.40;35.52;93232.63;5131337;27;20054;-87
2021/08/11 08:11:28;;;;;;;14.48;6.70;;;;;;;30.27;35.63;93255.72;5131325;27;20043;-90
2021/08/11 08:13:55;;;;;;;12.65;6.50;;;;;;;30.85;35.55;93259.25;5130922;27;20401;-89
2021/08/11 08:16:22;;;;;;;15.65;6.05;;;;;;;31.24;34.62;93228.78;5131488;27;20043;-90
2021/08/11 08:18:48;;;;;;;8.85;5.65;;;;;;;31.71;33.59;93219.31;5131421;27;20047;-88
2021/08/11 08:21:17;;;;;;;9.77;5.47;;;;;;;32.28;32.69;93236.91;5131087;27;20100;-89
2021/08/11 08:23:43;;;;;;;15.07;7.53;;;;;;;32.17;32.42;93228.72;5130955;27;20050;-89
2021/08/11 08:26:10;;;;;;;17.40;9.27;;;;;;;31.57;33.80;93254.28;5131159;27;20473;-89
2021/08/11 08:28:37;;;;;;;16.80;6.38;;;;;;;32.28;32.93;93239.56;5131041;27;20043;-90
2021/08/11 08:31:04;;;;;;;13.50;5.55;;;;;;;32.78;32.34;93235.28;5131061;27;20099;-89
2021/08/11 08:33:30;;;;;;;12.20;5.63;;;;;;;33.22;31.30;93235.34;5130720;27;20043;-89
2021/08/11 08:35:57;;;;;;;12.98;6.55;;;;;;;33.33;30.94;93234.41;5130599;27;20108;-90
2021/08/11 08:38:25;;;;;;;14.32;5.63;;;;;;;33.63;30.48;93241.00;5131098;27;20043;-90
2021/08/11 08:40:53;;;;;;;12.13;5.72;;;;;;;33.66;30.22;93203.00;5130485;27;20396;-91
2021/08/11 08:43:20;;;;;;;12.90;5.57;;;;;;;33.95;28.97;93194.66;5130971;27;20776;-90
2021/08/11 08:45:50;;;;;;;11.57;5.38;;;;;;;34.36;28.42;93216.19;5130498;27;20103;-92
2021/08/11 08:48:17;;;;;;;15.65;5.07;;;;;;;34.41;29.17;93177.00;5131421;27;20069;-89
2021/08/11 08:50:48;;;;;;;7.45;4.80;;;;;;;34.63;28.43;93183.38;5131061;27;20091;-91
2021/08/11 08:53:21;;;;;;;9.85;4.45;;;;;;;34.96;27.84;93189.03;5142661;27;20097;-92
2021/08/11 08:55:50;;;;;;;12.60;5.07;;;;;;;35.20;27.56;93195.78;5137051;27;20039;-91
2021/08/11 08:58:17;;;;;;;7.65;4.43;;;;;;;35.48;26.31;93226.56;5129991;27;20047;-91
2021/08/11 09:00:44;;;;;;;7.13;3.65;;;;;;;35.18;26.70;93216.75;5130073;27;20495;-89
2021/08/11 09:03:11;;;;;;;16.30;4.20;;;;;;;35.05;25.98;93160.94;5130799;27;20045;-92
2021/08/11 09:05:38;;;;;;;9.77;4.00;;;;;;;35.62;25.21;93214.50;5130739;27;20686;-92
2021/08/11 09:08:08;;;;;;;7.85;3.92;;;;;;;34.55;26.21;93209.16;5130727;27;20461;-89
2021/08/11 09:10:39;;;;;;;7.20;3.78;;;;;;;32.92;27.81;93106.34;5130296;27;20151;-91
2021/08/11 09:13:14;;;;;;;5.50;3.75;;;;;;;32.46;27.99;93184.13;5131107;27;20054;-91
2021/08/11 09:15:47;;;;;;;8.68;3.78;;;;;;;33.17;27.47;93173.31;5130091;27;20047;-93
2021/08/11 09:18:16;;;;;;;6.22;3.78;;;;;;;33.10;28.20;93213.09;5130095;27;20039;-92
2021/08/11 09:20:45;;;;;;;7.15;3.55;;;;;;;33.17;27.75;93178.63;5130394;27;20055;-88
2021/08/11 09:23:14;;;;;;;8.80;3.72;;;;;;;32.75;28.04;93200.63;5129846;28;20047;-89
2021/08/11 09:25:58;;;;;;;6.75;3.38;;;;;;;32.75;25.39;93216.59;5129934;27;20047;-92
2021/08/11 09:28:27;;;;;;;5.10;3.58;;;;;;;32.79;24.82;93148.28;5130633;28;20047;-90
2021/08/11 09:30:54;;;;;;;5.82;3.75;;;;;;;33.51;24.37;93199.34;5130338;27;20051;-89
2021/08/11 09:33:24;;;;;;;7.00;3.92;;;;;;;32.75;25.17;93216.59;5129813;27;20095;-90
2021/08/11 09:35:51;;;;;;;6.30;3.78;;;;;;;32.53;25.78;93202.88;5129414;28;20482;-90
2021/08/11 09:38:18;;;;;;;5.40;3.17;;;;;;;32.55;25.11;93186.59;5129101;28;20054;-88
2021/08/11 09:40:46;;;;;;;6.63;3.00;;;;;;;32.26;25.29;93152.22;5126586;28;20043;-89
2021/08/11 09:43:16;;;;;;;5.93;3.30;;;;;;;32.72;24.82;93196.78;5129521;27;20096;-92
2021/08/11 09:45:47;;;;;;;5.88;3.72;;;;;;;32.36;27.04;93182.78;5132744;27;20532;-89
2021/08/11 09:48:18;;;;;;;6.50;3.95;;;;;;;32.04;28.10;93190.84;5133021;27;20043;-89
2021/08/11 09:50:48;;;;;;;6.43;3.92;;;;;;;32.08;27.52;93186.38;5132642;27;20063;-91
2021/08/11 09:53:17;;;;;;;9.05;3.53;;;;;;;32.09;28.69;93185.28;5133749;27;20051;-92
2021/08/11 09:56:00;;;;;;;5.68;3.70;;;;;;;31.07;28.51;93074.13;5133575;27;20103;-92
2021/08/11 09:58:27;;;;;;;8.18;3.53;;;;;;;31.72;28.20;93189.78;5133876;27;20043;-93
2021/08/11 10:00:56;;;;;;;9.15;4.40;;;;;;;31.04;28.83;93069.50;5133985;27;20054;-93
2021/08/11 10:03:22;;;;;;;6.57;3.90;;;;;;;31.81;28.31;93163.03;5133320;27;20046;-92
2021/08/11 10:16:07;;;;;;;9.40;3.53;;;;;;;32.96;26.11;93095.75;5114125;28;20034;-94
2021/08/11 10:18:40;;;;;;;7.40;3.40;;;;;;;33.31;23.50;93119.53;5114321;28;20058;-94
2021/08/11 10:21:08;;;;;;;11.95;3.88;;;;;;;32.90;24.05;93097.94;5113633;28;20047;-91
2021/08/11 10:23:35;;;;;;;4.45;3.20;;;;;;;33.94;22.75;93174.47;5130103;27;20054;-89
2021/08/11 10:26:08;;;;;;;6.10;3.47;;;;;;;33.63;23.03;93099.84;5133761;27;20445;-95
2021/08/11 11:10:26;;;;;;;12.40;5.97;;;;;;;33.96;23.82;93121.56;4846882;29;20064;-96
2021/08/11 11:20:28;;;;;;;7.38;3.80;;;;;;;34.22;21.37;93117.38;4934645;29;20069;-95
2021/08/11 11:23:42;;;;;;;5.68;3.33;;;;;;;33.72;20.72;92996.50;5029469;28;20053;-94
2021/08/11 11:29:47;;;;;;;6.20;4.05;;;;;;;33.36;23.49;93035.94;5113195;28;20136;-96
2021/08/11 11:32:53;;;;;;;;;;;;;;;;;;;;;
2021/08/11 11:35:21;;;;;;;6.20;3.40;;;;;;;34.91;20.80;93086.88;5128715;22;20064;-94
2021/08/11 11:38:06;;;;;;;7.55;3.58;;;;;;;35.19;19.80;93087.47;5115022;28;20054;-95
2021/08/11 11:41:07;;;;;;;7.35;3.65;;;;;;;33.84;21.42;93088.69;5114936;28;20051;-92
2021/08/11 11:43:33;;;;;;;6.22;3.30;;;;;;;33.54;20.85;93036.22;5115442;28;20111;-92
2021/08/11 11:46:03;;;;;;;7.05;3.60;;;;;;;33.95;20.65;93090.75;5114866;28;20443;-92
2021/08/11 11:48:30;;;;;;;5.22;3.42;;;;;;;34.45;20.57;93079.91;5114613;28;20043;-92
2021/08/11 11:51:02;;;;;;;5.28;3.47;;;;;;;34.56;20.74;93053.34;5114439;28;20048;-93
2021/08/11 11:53:33;;;;;;;10.10;3.17;;;;;;;34.81;19.77;93026.16;5114246;28;20044;-93
2021/08/11 11:56:11;;;;;;;4.35;3.13;;;;;;;34.78;19.28;93058.91;5114717;28;20071;-95
2021/08/11 11:58:43;;;;;;;6.88;3.70;;;;;;;34.34;19.74;93039.81;5117785;27;20036;-94
2021/08/11 12:01:11;;;;;;;5.40;3.60;;;;;;;33.80;21.92;93082.59;5135294;27;20051;-95
2021/08/11 12:03:40;;;;;;;4.70;3.17;;;;;;;33.65;22.32;93078.19;5135865;27;20137;-92
2021/08/11 12:06:08;;;;;;;5.50;3.33;;;;;;;34.04;22.34;93071.81;5124831;27;20051;-93
2021/08/11 12:08:35;;;;;;;8.73;3.88;;;;;;;32.76;22.87;93032.00;5115043;27;20503;-94
2021/08/11 12:11:06;;;;;;;8.05;4.55;;;;;;;32.61;23.86;93053.00;5129628;27;20084;-94
2021/08/11 12:13:45;;;;;;;7.57;5.13;;;;;;;32.86;23.99;93079.25;5120759;27;20488;-93
2021/08/11 12:16:13;;;;;;;6.55;3.63;;;;;;;32.04;24.25;93047.41;5122390;27;20089;-94
2021/08/11 12:18:42;;;;;;;9.15;3.70;;;;;;;32.47;23.43;93050.09;5125634;27;20542;-94
2021/08/11 12:21:10;;;;;;;5.95;3.70;;;;;;;32.72;23.00;93068.38;5124624;27;21491;-93
2021/08/11 12:23:37;;;;;;;6.07;3.53;;;;;;;32.55;22.79;92960.59;5117407;27;21455;-92
2021/08/11 12:26:06;;;;;;;6.43;3.60;;;;;;;33.48;21.92;93039.50;5120896;27;20054;-92
2021/08/11 12:28:36;;;;;;;6.53;3.88;;;;;;;34.10;21.25;93046.41;5113960;28;20051;-91
2021/08/11 12:31:07;;;;;;;5.68;3.58;;;;;;;33.75;21.59;93050.16;5113571;28;20135;-94
2021/08/11 12:33:37;;;;;;;6.00;3.92;;;;;;;33.76;21.85;93051.69;5113484;28;20055;-92
2021/08/11 12:36:05;;;;;;;5.85;3.85;;;;;;;32.79;21.51;93023.28;5114059;28;20104;-91
2021/08/11 12:38:34;;;;;;;6.03;3.75;;;;;;;33.56;21.58;93039.25;5113410;28;20043;-91